createdAt,value
2023-01-13T00:05:25.903Z,-93.61
2023-01-13T00:15:25.902Z,-93.61
2023-01-13T00:25:25.874Z,-93.61
2023-01-13T00:35:25.908Z,-93.61
2023-01-13T00:45:25.883Z,-93.61
2023-01-13T00:55:25.908Z,-93.61
2023-01-13T01:05:25.876Z,-93.24
2023-01-13T01:15:25.909Z,-93.24
2023-01-13T01:25:25.897Z,-93.24
2023-01-13T01:35:25.906Z,-93.24
2023-01-13T01:45:25.913Z,-93.24
2023-01-13T01:55:25.907Z,-93.24
2023-01-13T02:05:26.034Z,-93.24
2023-01-13T02:15:25.910Z,-93.24
2023-01-13T02:25:25.894Z,-93.24
2023-01-13T02:35:25.917Z,-93.24
2023-01-13T02:45:26.064Z,-93.24
2023-01-13T02:55:25.907Z,-93.24
2023-01-13T03:05:25.874Z,-93.61
2023-01-13T03:15:25.915Z,-93.61
2023-01-13T03:25:25.900Z,192.4
2023-01-13T03:35:25.901Z,192.4
2023-01-13T03:45:25.882Z,192.4
2023-01-13T03:55:25.906Z,-93.24
2023-01-13T04:05:25.886Z,-93.24
2023-01-13T04:15:25.968Z,-93.24
2023-01-13T04:25:25.876Z,-93.24
2023-01-13T04:35:25.903Z,-93.24
2023-01-13T04:45:25.891Z,-93.61
2023-01-13T04:55:25.911Z,-93.61
2023-01-13T05:05:25.876Z,-93.24
2023-01-13T05:15:25.910Z,-93.24
2023-01-13T05:25:25.879Z,-93.24
2023-01-13T05:35:25.917Z,-93.24
2023-01-13T05:45:25.881Z,-93.24
2023-01-13T05:55:25.918Z,-93.24
2023-01-13T06:05:26.068Z,-93.24
2023-01-13T06:15:25.906Z,-93.24
2023-01-13T06:25:25.885Z,-93.24
2023-01-13T06:35:25.918Z,75.11
2023-01-13T06:45:25.879Z,-93.61
2023-01-13T06:55:25.911Z,-93.61
2023-01-13T07:05:25.879Z,-93.61
2023-01-13T07:15:25.915Z,-93.61
2023-01-13T07:25:25.891Z,-93.61
2023-01-13T07:35:25.922Z,-93.61
2023-01-13T07:45:25.894Z,-93.61
2023-01-13T07:55:25.916Z,-93.61
2023-01-13T08:05:25.887Z,-93.61
2023-01-13T08:15:25.925Z,-93.61
2023-01-13T08:25:25.894Z,-92.87
2023-01-13T08:35:25.921Z,0.37
2023-01-13T08:45:25.884Z,29.97
2023-01-13T08:55:25.921Z,59.57
2023-01-13T09:05:25.887Z,59.57
2023-01-13T09:15:25.922Z,74
2023-01-13T09:25:25.880Z,12.209999999999999
2023-01-13T09:35:25.906Z,12.209999999999999
2023-01-13T09:45:25.891Z,38.11
2023-01-13T09:55:25.931Z,38.11
2023-01-13T10:05:25.897Z,50.32
2023-01-13T10:15:25.915Z,5.92
2023-01-13T10:25:25.901Z,5.92
2023-01-13T10:35:25.928Z,5.92
2023-01-13T10:45:25.927Z,5.92
2023-01-13T10:55:26.004Z,0.74
2023-01-13T11:05:25.897Z,0.74
2023-01-13T11:15:25.935Z,0.74
2023-01-13T11:25:25.912Z,0.74
2023-01-13T11:35:25.921Z,0.74
2023-01-13T11:45:25.897Z,0.74
2023-01-13T11:55:25.929Z,0.74
2023-01-13T12:05:25.895Z,0.74
2023-01-13T12:15:25.918Z,0.74
2023-01-13T12:25:25.894Z,1.1099999999999999
2023-01-13T12:35:25.970Z,1.1099999999999999
2023-01-13T12:45:25.919Z,0
2023-01-13T12:55:25.933Z,0
2023-01-13T13:05:25.910Z,0
2023-01-13T13:15:25.930Z,-0.37
2023-01-13T13:25:25.895Z,-0.37
2023-01-13T13:35:25.934Z,-0.37
2023-01-13T13:45:25.914Z,0
2023-01-13T13:55:25.945Z,0
2023-01-13T14:05:27.060Z,0
2023-01-13T14:15:25.959Z,0
2023-01-13T14:25:25.848Z,0
2023-01-13T14:35:25.874Z,0
2023-01-13T14:45:25.826Z,0
2023-01-13T14:55:25.867Z,0
2023-01-13T15:05:25.822Z,0
2023-01-13T15:15:25.861Z,0
2023-01-13T15:25:25.820Z,0
2023-01-13T15:35:25.855Z,0
2023-01-13T15:45:25.827Z,0
2023-01-13T15:55:25.844Z,-0.37
2023-01-13T16:05:25.835Z,-0.37
2023-01-13T16:15:25.885Z,0
2023-01-13T16:25:25.845Z,0
2023-01-13T16:35:25.931Z,0
2023-01-13T16:45:25.949Z,0
2023-01-13T16:55:25.918Z,0
2023-01-13T17:05:25.903Z,0
2023-01-13T17:15:25.940Z,0
2023-01-13T17:25:25.906Z,0
2023-01-13T17:35:25.947Z,0
2023-01-13T17:45:25.908Z,0
2023-01-13T17:55:25.932Z,0
2023-01-13T18:05:25.910Z,0
2023-01-13T18:15:25.941Z,0
2023-01-13T18:25:25.908Z,0
2023-01-13T18:35:25.936Z,0
2023-01-13T18:45:25.922Z,0
2023-01-13T18:55:25.923Z,0
2023-01-13T19:05:25.903Z,0
2023-01-13T19:15:25.946Z,0
2023-01-13T19:25:25.921Z,0
2023-01-13T19:35:25.934Z,0
2023-01-13T19:45:25.909Z,0
2023-01-13T19:55:25.933Z,0
2023-01-13T20:05:26.065Z,0
2023-01-13T20:15:25.941Z,0
2023-01-13T20:25:26.007Z,-0.37
2023-01-13T20:35:25.932Z,-0.37
2023-01-13T20:45:25.913Z,-0.37
2023-01-13T20:55:25.955Z,0
2023-01-13T21:05:25.915Z,0
2023-01-13T21:15:25.941Z,0
2023-01-13T21:25:25.914Z,0
2023-01-13T21:35:25.960Z,0
2023-01-13T21:45:25.920Z,0
2023-01-13T21:55:25.947Z,0
2023-01-13T22:05:25.941Z,0
2023-01-13T22:15:25.973Z,0
2023-01-13T22:25:25.911Z,0
2023-01-13T22:35:25.947Z,0
2023-01-13T22:45:25.921Z,0
2023-01-13T22:55:25.940Z,0
2023-01-13T23:05:25.918Z,0
2023-01-13T23:15:25.942Z,0
2023-01-13T23:25:25.916Z,-0.37
2023-01-13T23:35:25.950Z,-0.37
2023-01-13T23:45:25.922Z,-0.37
2023-01-13T23:55:25.941Z,-0.37
